sensor_id;sensor_type;location;lat;lon;timestamp;pressure;altitude;pressure_sealevel;temperature;humidity
38616;BME280;24370;51.986;4.666;2023-07-31T00:01:35;101017.09;;;23.95;82.59
38616;BME280;24370;51.986;4.666;2023-07-31T00:04:01;101024.91;;;22.79;85.59
38616;BME280;24370;51.986;4.666;2023-07-31T00:06:26;101014.00;;;22.98;84.68
38616;BME280;24370;51.986;4.666;2023-07-31T00:08:51;101028.34;;;22.81;88.38
38616;BME280;24370;51.986;4.666;2023-07-31T00:11:17;101029.91;;;22.69;89.26
38616;BME280;24370;51.986;4.666;2023-07-31T00:13:42;101011.47;;;23.11;85.76
38616;BME280;24370;51.986;4.666;2023-07-31T00:16:08;101028.38;;;22.01;92.53
38616;BME280;24370;51.986;4.666;2023-07-31T00:18:34;101019.22;;;23.16;89.49
38616;BME280;24370;51.986;4.666;2023-07-31T00:21:00;101015.72;;;22.99;86.88
38616;BME280;24370;51.986;4.666;2023-07-31T00:23:25;101021.53;;;22.92;88.52
38616;BME280;24370;51.986;4.666;2023-07-31T00:25:50;101026.16;;;22.88;86.78
38616;BME280;24370;51.986;4.666;2023-07-31T00:28:16;101018.88;;;22.45;90.13
38616;BME280;24370;51.986;4.666;2023-07-31T00:30:41;101020.47;;;22.64;88.33
38616;BME280;24370;51.986;4.666;2023-07-31T00:33:07;101015.78;;;22.83;89.30
38616;BME280;24370;51.986;4.666;2023-07-31T00:35:32;101008.66;;;23.14;86.21
38616;BME280;24370;51.986;4.666;2023-07-31T00:37:58;101013.47;;;23.52;82.90
38616;BME280;24370;51.986;4.666;2023-07-31T00:40:23;101009.09;;;23.37;83.54
38616;BME280;24370;51.986;4.666;2023-07-31T00:42:49;101022.69;;;22.56;89.80
38616;BME280;24370;51.986;4.666;2023-07-31T00:45:14;101019.63;;;22.31;90.69
38616;BME280;24370;51.986;4.666;2023-07-31T00:47:39;101015.00;;;23.12;88.47
38616;BME280;24370;51.986;4.666;2023-07-31T00:50:06;101031.63;;;21.91;95.15
38616;BME280;24370;51.986;4.666;2023-07-31T00:52:32;101012.81;;;23.04;89.64
38616;BME280;24370;51.986;4.666;2023-07-31T00:54:58;101003.75;;;23.37;85.53
38616;BME280;24370;51.986;4.666;2023-07-31T00:57:24;101008.09;;;22.63;89.76
38616;BME280;24370;51.986;4.666;2023-07-31T00:59:49;101016.44;;;22.87;89.54
38616;BME280;24370;51.986;4.666;2023-07-31T01:02:15;101016.75;;;23.13;87.28
38616;BME280;24370;51.986;4.666;2023-07-31T01:04:42;101035.75;;;22.12;94.07
38616;BME280;24370;51.986;4.666;2023-07-31T01:07:27;101017.88;;;22.14;96.56
38616;BME280;24370;51.986;4.666;2023-07-31T01:10:07;101020.41;;;22.96;89.46
38616;BME280;24370;51.986;4.666;2023-07-31T01:12:34;101020.59;;;22.46;90.64
38616;BME280;24370;51.986;4.666;2023-07-31T01:15:07;101031.38;;;21.44;100.00
38616;BME280;24370;51.986;4.666;2023-07-31T01:17:37;101028.91;;;21.59;100.00
38616;BME280;24370;51.986;4.666;2023-07-31T01:20:05;101021.34;;;22.16;97.23
38616;BME280;24370;51.986;4.666;2023-07-31T01:28:32;101006.41;;;22.30;91.68
38616;BME280;24370;51.986;4.666;2023-07-31T01:31:00;101004.00;;;22.41;89.72
38616;BME280;24370;51.986;4.666;2023-07-31T01:33:28;100999.16;;;23.25;86.02
38616;BME280;24370;51.986;4.666;2023-07-31T01:35:54;100991.47;;;23.04;88.34
38616;BME280;24370;51.986;4.666;2023-07-31T01:38:21;100985.25;;;22.89;85.56
38616;BME280;24370;51.986;4.666;2023-07-31T01:40:50;100993.09;;;23.37;81.82
38616;BME280;24370;51.986;4.666;2023-07-31T01:43:16;100994.81;;;22.77;86.97
38616;BME280;24370;51.986;4.666;2023-07-31T01:45:41;101000.72;;;22.04;91.88
38616;BME280;24370;51.986;4.666;2023-07-31T01:48:07;100987.50;;;22.50;89.43
38616;BME280;24370;51.986;4.666;2023-07-31T01:50:32;100976.63;;;23.00;81.84
38616;BME280;24370;51.986;4.666;2023-07-31T01:52:57;100985.09;;;23.07;83.21
38616;BME280;24370;51.986;4.666;2023-07-31T01:55:23;100967.31;;;22.30;87.39
38616;BME280;24370;51.986;4.666;2023-07-31T01:57:48;100965.38;;;22.95;82.82
38616;BME280;24370;51.986;4.666;2023-07-31T02:00:14;100951.81;;;23.57;79.16
38616;BME280;24370;51.986;4.666;2023-07-31T02:02:39;100942.41;;;23.23;82.98
38616;BME280;24370;51.986;4.666;2023-07-31T02:05:05;100948.97;;;23.17;82.02
38616;BME280;24370;51.986;4.666;2023-07-31T02:07:31;100941.91;;;22.25;81.67
38616;BME280;24370;51.986;4.666;2023-07-31T02:09:56;100941.72;;;22.74;83.47
38616;BME280;24370;51.986;4.666;2023-07-31T02:12:22;100940.41;;;22.51;83.57
38616;BME280;24370;51.986;4.666;2023-07-31T02:14:47;100933.59;;;23.78;77.84
38616;BME280;24370;51.986;4.666;2023-07-31T02:17:12;100937.44;;;22.86;80.48
38616;BME280;24370;51.986;4.666;2023-07-31T02:19:38;100934.41;;;23.37;77.02
38616;BME280;24370;51.986;4.666;2023-07-31T02:22:04;100918.94;;;24.53;71.46
38616;BME280;24370;51.986;4.666;2023-07-31T02:24:29;100930.00;;;23.65;74.11
38616;BME280;24370;51.986;4.666;2023-07-31T02:26:54;100936.09;;;23.38;77.71
38616;BME280;24370;51.986;4.666;2023-07-31T02:29:20;100939.81;;;23.21;78.94
38616;BME280;24370;51.986;4.666;2023-07-31T02:31:45;100934.81;;;23.00;78.68
38616;BME280;24370;51.986;4.666;2023-07-31T02:34:11;100939.34;;;22.07;85.70
38616;BME280;24370;51.986;4.666;2023-07-31T02:36:36;100925.50;;;23.80;75.78
38616;BME280;24370;51.986;4.666;2023-07-31T02:39:02;100926.44;;;23.64;73.45
38616;BME280;24370;51.986;4.666;2023-07-31T02:41:27;100928.44;;;23.75;73.50
38616;BME280;24370;51.986;4.666;2023-07-31T02:43:52;100931.88;;;22.91;76.33
38616;BME280;24370;51.986;4.666;2023-07-31T02:46:19;100933.97;;;23.72;74.20
38616;BME280;24370;51.986;4.666;2023-07-31T02:48:45;100927.88;;;22.98;75.41
38616;BME280;24370;51.986;4.666;2023-07-31T02:51:10;100917.66;;;23.20;73.83
38616;BME280;24370;51.986;4.666;2023-07-31T02:53:36;100926.81;;;22.56;79.29
38616;BME280;24370;51.986;4.666;2023-07-31T02:56:01;100921.75;;;22.67;75.02
38616;BME280;24370;51.986;4.666;2023-07-31T02:58:27;100919.94;;;22.37;76.26
38616;BME280;24370;51.986;4.666;2023-07-31T03:00:52;100894.38;;;22.94;73.24
38616;BME280;24370;51.986;4.666;2023-07-31T03:03:17;100893.31;;;22.51;75.08
38616;BME280;24370;51.986;4.666;2023-07-31T03:05:43;100880.09;;;23.94;68.64
38616;BME280;24370;51.986;4.666;2023-07-31T03:08:08;100893.44;;;23.94;66.89
38616;BME280;24370;51.986;4.666;2023-07-31T03:10:37;100896.63;;;22.85;75.45
38616;BME280;24370;51.986;4.666;2023-07-31T03:13:02;100898.69;;;23.25;71.04
38616;BME280;24370;51.986;4.666;2023-07-31T03:15:27;100891.91;;;23.48;70.97
38616;BME280;24370;51.986;4.666;2023-07-31T03:17:53;100883.53;;;23.26;69.29
38616;BME280;24370;51.986;4.666;2023-07-31T03:20:18;100887.28;;;22.64;73.78
38616;BME280;24370;51.986;4.666;2023-07-31T03:22:44;100890.72;;;22.80;75.77
38616;BME280;24370;51.986;4.666;2023-07-31T03:25:09;100893.34;;;23.25;71.05
38616;BME280;24370;51.986;4.666;2023-07-31T03:27:35;100884.00;;;23.32;73.18
38616;BME280;24370;51.986;4.666;2023-07-31T03:30:02;100874.00;;;23.50;69.74
38616;BME280;24370;51.986;4.666;2023-07-31T03:32:27;100879.59;;;22.88;74.75
38616;BME280;24370;51.986;4.666;2023-07-31T03:34:53;100890.78;;;23.24;73.12
38616;BME280;24370;51.986;4.666;2023-07-31T03:37:18;100884.78;;;23.06;73.20
38616;BME280;24370;51.986;4.666;2023-07-31T03:39:44;100884.69;;;23.78;70.40
38616;BME280;24370;51.986;4.666;2023-07-31T03:42:09;100882.22;;;23.33;73.96
38616;BME280;24370;51.986;4.666;2023-07-31T03:44:34;100882.69;;;23.25;73.68
38616;BME280;24370;51.986;4.666;2023-07-31T03:47:00;100885.44;;;22.95;76.91
38616;BME280;24370;51.986;4.666;2023-07-31T03:49:25;100872.41;;;23.33;76.20
38616;BME280;24370;51.986;4.666;2023-07-31T03:51:51;100874.59;;;23.27;76.55
38616;BME280;24370;51.986;4.666;2023-07-31T03:54:16;100868.66;;;22.78;77.29
38616;BME280;24370;51.986;4.666;2023-07-31T03:56:41;100867.78;;;22.33;85.17
38616;BME280;24370;51.986;4.666;2023-07-31T03:59:07;100875.56;;;21.90;90.70
38616;BME280;24370;51.986;4.666;2023-07-31T04:01:32;100861.66;;;22.31;85.38
38616;BME280;24370;51.986;4.666;2023-07-31T04:03:58;100858.94;;;21.70;89.11
38616;BME280;24370;51.986;4.666;2023-07-31T04:06:23;100855.56;;;21.98;86.03
38616;BME280;24370;51.986;4.666;2023-07-31T04:08:49;100858.34;;;21.97;89.20
38616;BME280;24370;51.986;4.666;2023-07-31T04:11:14;100864.59;;;22.42;80.55
38616;BME280;24370;51.986;4.666;2023-07-31T04:13:40;100847.41;;;21.85;86.96
38616;BME280;24370;51.986;4.666;2023-07-31T04:16:05;100853.69;;;22.31;84.46
38616;BME280;24370;51.986;4.666;2023-07-31T04:18:31;100844.25;;;22.25;84.26
38616;BME280;24370;51.986;4.666;2023-07-31T04:20:57;100838.31;;;22.36;89.00
38616;BME280;24370;51.986;4.666;2023-07-31T04:23:27;100840.25;;;22.48;86.10
38616;BME280;24370;51.986;4.666;2023-07-31T04:25:53;100841.56;;;21.95;90.39
38616;BME280;24370;51.986;4.666;2023-07-31T04:28:18;100843.47;;;21.45;93.34
38616;BME280;24370;51.986;4.666;2023-07-31T04:30:44;100833.28;;;22.15;88.06
38616;BME280;24370;51.986;4.666;2023-07-31T04:33:09;100835.84;;;21.86;89.83
38616;BME280;24370;51.986;4.666;2023-07-31T04:35:37;100835.78;;;21.72;89.10
38616;BME280;24370;51.986;4.666;2023-07-31T04:38:03;100835.34;;;22.10;91.10
38616;BME280;24370;51.986;4.666;2023-07-31T04:40:28;100836.19;;;20.99;98.66
38616;BME280;24370;51.986;4.666;2023-07-31T04:42:54;100818.22;;;22.00;94.83
38616;BME280;24370;51.986;4.666;2023-07-31T04:45:19;100826.09;;;21.71;96.81
38616;BME280;24370;51.986;4.666;2023-07-31T04:47:45;100824.06;;;21.91;95.28
38616;BME280;24370;51.986;4.666;2023-07-31T04:50:10;100816.56;;;21.67;96.97
38616;BME280;24370;51.986;4.666;2023-07-31T04:52:36;100823.31;;;21.89;100.00
38616;BME280;24370;51.986;4.666;2023-07-31T04:55:01;100830.78;;;21.34;100.00
38616;BME280;24370;51.986;4.666;2023-07-31T04:57:27;100820.31;;;21.31;99.50
38616;BME280;24370;51.986;4.666;2023-07-31T04:59:52;100813.34;;;22.23;93.02
38616;BME280;24370;51.986;4.666;2023-07-31T05:02:18;100818.94;;;21.88;96.03
38616;BME280;24370;51.986;4.666;2023-07-31T05:04:43;100809.56;;;22.27;92.72
38616;BME280;24370;51.986;4.666;2023-07-31T05:07:09;100808.06;;;21.60;91.94
38616;BME280;24370;51.986;4.666;2023-07-31T05:09:37;100802.44;;;21.97;92.45
38616;BME280;24370;51.986;4.666;2023-07-31T05:12:04;100804.78;;;22.17;93.14
38616;BME280;24370;51.986;4.666;2023-07-31T05:14:30;100805.03;;;21.82;94.49
38616;BME280;24370;51.986;4.666;2023-07-31T05:16:56;100802.34;;;21.68;96.34
38616;BME280;24370;51.986;4.666;2023-07-31T05:19:21;100800.25;;;21.73;97.47
38616;BME280;24370;51.986;4.666;2023-07-31T05:21:49;100797.50;;;21.43;97.68
38616;BME280;24370;51.986;4.666;2023-07-31T05:24:15;100795.41;;;21.96;93.64
38616;BME280;24370;51.986;4.666;2023-07-31T05:26:40;100787.50;;;22.84;88.18
38616;BME280;24370;51.986;4.666;2023-07-31T05:29:06;100790.56;;;21.72;94.17
38616;BME280;24370;51.986;4.666;2023-07-31T05:31:31;100790.78;;;22.44;91.22
38616;BME280;24370;51.986;4.666;2023-07-31T05:33:57;100774.44;;;22.06;91.36
38616;BME280;24370;51.986;4.666;2023-07-31T05:36:23;100779.47;;;22.41;93.02
38616;BME280;24370;51.986;4.666;2023-07-31T05:38:48;100775.91;;;22.26;96.21
38616;BME280;24370;51.986;4.666;2023-07-31T05:41:14;100775.88;;;22.11;96.62
38616;BME280;24370;51.986;4.666;2023-07-31T05:43:39;100769.94;;;22.06;94.27
38616;BME280;24370;51.986;4.666;2023-07-31T05:46:05;100769.13;;;21.43;97.08
38616;BME280;24370;51.986;4.666;2023-07-31T05:48:32;100760.69;;;22.28;97.39
38616;BME280;24370;51.986;4.666;2023-07-31T05:50:59;100758.81;;;23.02;90.17
38616;BME280;24370;51.986;4.666;2023-07-31T05:53:24;100759.03;;;22.41;93.10
38616;BME280;24370;51.986;4.666;2023-07-31T05:55:50;100753.75;;;22.25;94.24
38616;BME280;24370;51.986;4.666;2023-07-31T05:58:15;100753.91;;;22.67;93.29
38616;BME280;24370;51.986;4.666;2023-07-31T06:00:41;100756.75;;;22.64;92.32
38616;BME280;24370;51.986;4.666;2023-07-31T06:03:06;100745.16;;;22.50;93.12
38616;BME280;24370;51.986;4.666;2023-07-31T06:05:32;100745.81;;;22.97;91.62
38616;BME280;24370;51.986;4.666;2023-07-31T06:07:57;100750.50;;;21.75;98.04
38616;BME280;24370;51.986;4.666;2023-07-31T06:10:23;100760.09;;;21.78;100.00
38616;BME280;24370;51.986;4.666;2023-07-31T06:12:48;100758.56;;;22.18;98.27
38616;BME280;24370;51.986;4.666;2023-07-31T06:15:14;100751.69;;;22.00;100.00
38616;BME280;24370;51.986;4.666;2023-07-31T06:17:39;100728.91;;;23.26;92.80
38616;BME280;24370;51.986;4.666;2023-07-31T06:20:06;100749.91;;;22.45;93.66
38616;BME280;24370;51.986;4.666;2023-07-31T06:22:32;100742.09;;;23.00;90.06
38616;BME280;24370;51.986;4.666;2023-07-31T06:24:58;100749.91;;;22.45;96.71
38616;BME280;24370;51.986;4.666;2023-07-31T06:27:23;100732.47;;;22.83;92.07
38616;BME280;24370;51.986;4.666;2023-07-31T06:29:49;100730.72;;;23.11;94.87
38616;BME280;24370;51.986;4.666;2023-07-31T06:32:14;100733.16;;;22.86;96.47
38616;BME280;24370;51.986;4.666;2023-07-31T06:34:40;100729.41;;;23.03;90.47
38616;BME280;24370;51.986;4.666;2023-07-31T06:37:05;100734.06;;;22.28;92.64
38616;BME280;24370;51.986;4.666;2023-07-31T06:39:31;100724.47;;;23.39;87.84
38616;BME280;24370;51.986;4.666;2023-07-31T06:41:56;100725.47;;;23.78;84.52
38616;BME280;24370;51.986;4.666;2023-07-31T06:44:22;100720.91;;;23.11;88.28
38616;BME280;24370;51.986;4.666;2023-07-31T06:46:47;100725.78;;;22.32;96.06
38616;BME280;24370;51.986;4.666;2023-07-31T06:49:13;100725.44;;;22.53;97.73
38616;BME280;24370;51.986;4.666;2023-07-31T06:51:40;100713.56;;;22.87;92.76
38616;BME280;24370;51.986;4.666;2023-07-31T06:54:05;100724.59;;;21.93;95.69
38616;BME280;24370;51.986;4.666;2023-07-31T06:56:31;100722.84;;;22.23;100.00
38616;BME280;24370;51.986;4.666;2023-07-31T06:58:56;100719.84;;;22.43;100.00
38616;BME280;24370;51.986;4.666;2023-07-31T07:01:22;100718.59;;;22.49;96.89
38616;BME280;24370;51.986;4.666;2023-07-31T07:03:47;100712.22;;;22.80;96.49
38616;BME280;24370;51.986;4.666;2023-07-31T07:06:18;100713.66;;;22.72;94.02
38616;BME280;24370;51.986;4.666;2023-07-31T07:08:44;100703.81;;;23.15;94.26
38616;BME280;24370;51.986;4.666;2023-07-31T07:11:09;100714.09;;;23.07;90.91
38616;BME280;24370;51.986;4.666;2023-07-31T07:13:35;100715.84;;;22.79;98.83
38616;BME280;24370;51.986;4.666;2023-07-31T07:16:00;100706.94;;;23.22;89.98
38616;BME280;24370;51.986;4.666;2023-07-31T07:18:26;100730.88;;;22.51;99.72
38616;BME280;24370;51.986;4.666;2023-07-31T07:20:53;100718.16;;;22.71;96.65
38616;BME280;24370;51.986;4.666;2023-07-31T07:23:19;100714.78;;;22.53;98.65
38616;BME280;24370;51.986;4.666;2023-07-31T07:25:45;100711.97;;;21.97;100.00
38616;BME280;24370;51.986;4.666;2023-07-31T07:28:11;100716.31;;;22.57;97.50
38616;BME280;24370;51.986;4.666;2023-07-31T07:30:37;100715.88;;;22.50;100.00
38616;BME280;24370;51.986;4.666;2023-07-31T07:33:03;100705.34;;;22.91;94.69
38616;BME280;24370;51.986;4.666;2023-07-31T07:35:28;100710.06;;;22.73;96.72
38616;BME280;24370;51.986;4.666;2023-07-31T07:37:54;100713.06;;;22.23;100.00
38616;BME280;24370;51.986;4.666;2023-07-31T07:40:20;100714.25;;;23.18;99.39
38616;BME280;24370;51.986;4.666;2023-07-31T07:42:45;100715.19;;;23.32;97.35
38616;BME280;24370;51.986;4.666;2023-07-31T07:45:12;100717.75;;;22.03;100.00
38616;BME280;24370;51.986;4.666;2023-07-31T07:47:38;100717.59;;;23.49;95.29
38616;BME280;24370;51.986;4.666;2023-07-31T07:50:04;100715.88;;;23.48;90.45
38616;BME280;24370;51.986;4.666;2023-07-31T07:52:30;100719.84;;;22.43;98.07
38616;BME280;24370;51.986;4.666;2023-07-31T07:54:55;100719.06;;;22.84;97.31
38616;BME280;24370;51.986;4.666;2023-07-31T07:57:21;100714.66;;;23.40;97.22
38616;BME280;24370;51.986;4.666;2023-07-31T07:59:46;100706.09;;;22.93;98.60
38616;BME280;24370;51.986;4.666;2023-07-31T08:02:11;100711.91;;;23.41;98.11
38616;BME280;24370;51.986;4.666;2023-07-31T08:04:37;100709.91;;;22.88;99.79
38616;BME280;24370;51.986;4.666;2023-07-31T08:07:02;100713.75;;;22.56;100.00
38616;BME280;24370;51.986;4.666;2023-07-31T08:09:28;100695.22;;;23.25;96.40
38616;BME280;24370;51.986;4.666;2023-07-31T08:11:53;100691.44;;;23.00;100.00
38616;BME280;24370;51.986;4.666;2023-07-31T08:14:19;100701.19;;;22.86;100.00
38616;BME280;24370;51.986;4.666;2023-07-31T08:16:45;100686.63;;;23.74;93.55
38616;BME280;24370;51.986;4.666;2023-07-31T08:19:10;100691.31;;;23.16;94.45
38616;BME280;24370;51.986;4.666;2023-07-31T08:21:36;100689.38;;;22.76;97.69
38616;BME280;24370;51.986;4.666;2023-07-31T08:24:01;100704.44;;;23.46;97.19
38616;BME280;24370;51.986;4.666;2023-07-31T08:26:27;100696.00;;;22.98;100.00
38616;BME280;24370;51.986;4.666;2023-07-31T08:28:52;100698.94;;;23.62;96.17
38616;BME280;24370;51.986;4.666;2023-07-31T08:31:18;100697.38;;;22.91;100.00
38616;BME280;24370;51.986;4.666;2023-07-31T08:33:44;100705.56;;;23.57;96.87
38616;BME280;24370;51.986;4.666;2023-07-31T08:36:09;100695.00;;;23.28;97.98
38616;BME280;24370;51.986;4.666;2023-07-31T08:38:35;100690.63;;;23.67;93.97
38616;BME280;24370;51.986;4.666;2023-07-31T08:41:03;100695.84;;;24.21;88.83
38616;BME280;24370;51.986;4.666;2023-07-31T08:43:28;100694.72;;;22.76;99.86
38616;BME280;24370;51.986;4.666;2023-07-31T08:45:55;100695.56;;;23.73;97.37
38616;BME280;24370;51.986;4.666;2023-07-31T08:48:23;100690.56;;;22.99;100.00
38616;BME280;24370;51.986;4.666;2023-07-31T08:50:51;100693.59;;;23.90;96.92
38616;BME280;24370;51.986;4.666;2023-07-31T08:53:17;100696.31;;;23.35;97.88
38616;BME280;24370;51.986;4.666;2023-07-31T08:55:43;100685.50;;;23.64;96.29
38616;BME280;24370;51.986;4.666;2023-07-31T08:58:09;100695.50;;;23.47;96.69
38616;BME280;24370;51.986;4.666;2023-07-31T09:00:37;100700.72;;;23.21;99.47
38616;BME280;24370;51.986;4.666;2023-07-31T09:03:10;100695.22;;;23.65;97.08
38616;BME280;24370;51.986;4.666;2023-07-31T09:05:38;100701.69;;;23.06;99.70
38616;BME280;24370;51.986;4.666;2023-07-31T09:08:07;100696.16;;;24.30;90.32
38616;BME280;24370;51.986;4.666;2023-07-31T09:10:44;100697.97;;;24.16;92.28
38616;BME280;24370;51.986;4.666;2023-07-31T09:13:11;100698.53;;;23.68;97.16
38616;BME280;24370;51.986;4.666;2023-07-31T09:15:37;100704.00;;;23.40;98.04
38616;BME280;24370;51.986;4.666;2023-07-31T09:18:04;100696.72;;;23.29;100.00
38616;BME280;24370;51.986;4.666;2023-07-31T09:20:30;100671.38;;;24.90;87.12
38616;BME280;24370;51.986;4.666;2023-07-31T09:23:05;100674.88;;;24.67;88.33
38616;BME280;24370;51.986;4.666;2023-07-31T09:25:31;100685.28;;;24.07;92.86
38616;BME280;24370;51.986;4.666;2023-07-31T09:27:59;100687.28;;;24.42;87.24
38616;BME280;24370;51.986;4.666;2023-07-31T09:30:25;100679.63;;;24.37;89.89
38616;BME280;24370;51.986;4.666;2023-07-31T09:32:59;100684.47;;;24.82;86.30
38616;BME280;24370;51.986;4.666;2023-07-31T09:35:33;100676.53;;;24.31;89.23
38616;BME280;24370;51.986;4.666;2023-07-31T09:38:10;100690.38;;;23.44;94.10
38616;BME280;24370;51.986;4.666;2023-07-31T09:40:41;100684.00;;;24.26;88.11
38616;BME280;24370;51.986;4.666;2023-07-31T09:43:09;100676.56;;;23.10;94.64
38616;BME280;24370;51.986;4.666;2023-07-31T09:45:37;100678.88;;;23.57;97.04
38616;BME280;24370;51.986;4.666;2023-07-31T09:48:03;100667.00;;;24.52;87.95
38616;BME280;24370;51.986;4.666;2023-07-31T09:50:29;100672.03;;;24.31;90.30
38616;BME280;24370;51.986;4.666;2023-07-31T09:52:55;100674.06;;;24.28;91.85
38616;BME280;24370;51.986;4.666;2023-07-31T09:55:21;100677.91;;;23.98;95.20
38616;BME280;24370;51.986;4.666;2023-07-31T09:57:48;100677.03;;;23.97;92.31
38616;BME280;24370;51.986;4.666;2023-07-31T10:00:19;100672.88;;;24.19;92.88
38616;BME280;24370;51.986;4.666;2023-07-31T10:02:47;100680.00;;;23.80;92.61
38616;BME280;24370;51.986;4.666;2023-07-31T10:05:15;100675.78;;;24.16;92.79
38616;BME280;24370;51.986;4.666;2023-07-31T10:07:58;100674.31;;;23.31;98.02
38616;BME280;24370;51.986;4.666;2023-07-31T10:10:24;100671.66;;;23.71;97.32
38616;BME280;24370;51.986;4.666;2023-07-31T10:12:52;100662.28;;;24.69;89.66
38616;BME280;24370;51.986;4.666;2023-07-31T10:15:18;100670.84;;;25.22;82.45
38616;BME280;24370;51.986;4.666;2023-07-31T10:17:47;100672.34;;;24.52;84.90
38616;BME280;24370;51.986;4.666;2023-07-31T10:20:12;100668.47;;;25.31;83.19
38616;BME280;24370;51.986;4.666;2023-07-31T10:22:39;100671.47;;;24.65;85.14
38616;BME280;24370;51.986;4.666;2023-07-31T10:25:07;100665.44;;;25.11;82.48
38616;BME280;24370;51.986;4.666;2023-07-31T10:27:38;100674.16;;;24.65;85.75
38616;BME280;24370;51.986;4.666;2023-07-31T10:30:04;100680.41;;;24.77;86.61
38616;BME280;24370;51.986;4.666;2023-07-31T10:32:31;100682.38;;;24.23;87.23
38616;BME280;24370;51.986;4.666;2023-07-31T10:34:57;100674.72;;;24.18;89.17
38616;BME280;24370;51.986;4.666;2023-07-31T10:37:23;100668.91;;;25.24;84.57
38616;BME280;24370;51.986;4.666;2023-07-31T10:40:01;100672.56;;;24.62;86.76
38616;BME280;24370;51.986;4.666;2023-07-31T10:42:37;100666.22;;;25.00;84.74
38616;BME280;24370;51.986;4.666;2023-07-31T10:45:10;100676.78;;;23.87;89.31
38616;BME280;24370;51.986;4.666;2023-07-31T10:47:44;100668.25;;;23.82;91.00
38616;BME280;24370;51.986;4.666;2023-07-31T10:50:20;100658.38;;;24.36;89.06
38616;BME280;24370;51.986;4.666;2023-07-31T10:52:51;100660.25;;;24.97;87.12
38616;BME280;24370;51.986;4.666;2023-07-31T10:57:57;100662.59;;;24.77;84.73
38616;BME280;24370;51.986;4.666;2023-07-31T11:00:27;100655.88;;;24.96;84.33
38616;BME280;24370;51.986;4.666;2023-07-31T11:03:14;100659.16;;;24.75;83.92
38616;BME280;24370;51.986;4.666;2023-07-31T11:08:46;100651.41;;;25.91;77.09
38616;BME280;24370;51.986;4.666;2023-07-31T11:11:13;100652.75;;;25.50;80.21
38616;BME280;24370;51.986;4.666;2023-07-31T11:13:53;100637.16;;;25.44;81.23
38616;BME280;24370;51.986;4.666;2023-07-31T11:16:20;100641.75;;;24.69;84.78
38616;BME280;24370;51.986;4.666;2023-07-31T11:18:47;100629.69;;;24.88;83.83
38616;BME280;24370;51.986;4.666;2023-07-31T11:21:21;100632.94;;;26.22;76.72
38616;BME280;24370;51.986;4.666;2023-07-31T11:23:48;100643.84;;;25.14;80.34
38616;BME280;24370;51.986;4.666;2023-07-31T11:26:14;100638.50;;;24.14;90.21
38616;BME280;24370;51.986;4.666;2023-07-31T11:28:40;100636.03;;;24.87;85.12
38616;BME280;24370;51.986;4.666;2023-07-31T11:31:09;100636.44;;;24.44;89.63
38616;BME280;24370;51.986;4.666;2023-07-31T11:33:35;100633.75;;;25.42;85.30
38616;BME280;24370;51.986;4.666;2023-07-31T11:36:00;100641.13;;;24.53;87.24
38616;BME280;24370;51.986;4.666;2023-07-31T11:40:52;100625.97;;;25.15;85.61
38616;BME280;24370;51.986;4.666;2023-07-31T11:43:18;100632.63;;;25.09;85.07
38616;BME280;24370;51.986;4.666;2023-07-31T11:45:55;100635.44;;;24.95;83.28
38616;BME280;24370;51.986;4.666;2023-07-31T11:48:34;100639.88;;;25.07;84.31
38616;BME280;24370;51.986;4.666;2023-07-31T11:51:04;100635.69;;;24.92;80.18
38616;BME280;24370;51.986;4.666;2023-07-31T11:56:07;100656.69;;;25.33;83.82
38616;BME280;24370;51.986;4.666;2023-07-31T11:58:37;100663.53;;;24.76;83.47
38616;BME280;24370;51.986;4.666;2023-07-31T12:01:03;100653.78;;;25.12;81.37
38616;BME280;24370;51.986;4.666;2023-07-31T12:03:29;100641.56;;;25.56;80.41
38616;BME280;24370;51.986;4.666;2023-07-31T12:05:54;100638.16;;;26.24;76.99
38616;BME280;24370;51.986;4.666;2023-07-31T12:08:21;100634.78;;;25.04;81.53
38616;BME280;24370;51.986;4.666;2023-07-31T12:10:50;100621.50;;;26.09;78.35
38616;BME280;24370;51.986;4.666;2023-07-31T12:13:26;100625.03;;;25.27;79.78
38616;BME280;24370;51.986;4.666;2023-07-31T12:16:02;100619.78;;;26.53;77.31
38616;BME280;24370;51.986;4.666;2023-07-31T12:18:29;100618.44;;;26.36;77.23
38616;BME280;24370;51.986;4.666;2023-07-31T12:20:58;100614.22;;;25.64;78.27
38616;BME280;24370;51.986;4.666;2023-07-31T12:23:28;100607.91;;;25.65;80.35
38616;BME280;24370;51.986;4.666;2023-07-31T12:26:12;100606.59;;;25.11;82.25
38616;BME280;24370;51.986;4.666;2023-07-31T12:28:41;100598.25;;;26.21;75.03
38616;BME280;24370;51.986;4.666;2023-07-31T12:31:09;100595.69;;;26.19;73.87
38616;BME280;24370;51.986;4.666;2023-07-31T12:33:36;100607.47;;;25.94;75.54
38616;BME280;24370;51.986;4.666;2023-07-31T12:36:09;100613.94;;;25.20;82.10
38616;BME280;24370;51.986;4.666;2023-07-31T12:38:34;100605.19;;;25.18;81.10
38616;BME280;24370;51.986;4.666;2023-07-31T12:41:00;100597.22;;;25.88;77.83
38616;BME280;24370;51.986;4.666;2023-07-31T12:43:25;100582.03;;;25.88;78.40
38616;BME280;24370;51.986;4.666;2023-07-31T12:45:51;100588.81;;;25.59;79.69
38616;BME280;24370;51.986;4.666;2023-07-31T12:48:17;100579.31;;;25.30;80.58
38616;BME280;24370;51.986;4.666;2023-07-31T12:50:43;100586.31;;;25.33;78.47
38616;BME280;24370;51.986;4.666;2023-07-31T12:53:08;100599.63;;;24.73;85.13
38616;BME280;24370;51.986;4.666;2023-07-31T12:55:37;100590.16;;;25.29;80.72
38616;BME280;24370;51.986;4.666;2023-07-31T12:58:03;100591.31;;;25.13;82.44
38616;BME280;24370;51.986;4.666;2023-07-31T13:00:28;100598.47;;;24.14;87.95
38616;BME280;24370;51.986;4.666;2023-07-31T13:02:54;100603.13;;;25.46;85.49
38616;BME280;24370;51.986;4.666;2023-07-31T13:05:20;100585.97;;;26.07;78.01